Time;durP1;ratioP1;P1;durP2;ratioP2;P2;SDS_P1;SDS_P2;PMS_P1;PMS_P2;Temp;Humidity;BMP_temperature;BMP_pressure;BME280_temperature;BME280_humidity;BME280_pressure;Samples;Min_cycle;Max_cycle;Signal;HPM_P1;HPM_P2
2024/03/22 00:01:46;;;;;;;71.80;48.55;;;;;;;;;;5151155;27;20030;-64
2024/03/22 00:04:13;;;;;;;70.85;48.65;;;;;;;;;;5152924;27;20498;-65
2024/03/22 00:09:42;;;;;;;74.32;51.50;;;;;;;;;;5150057;27;20061;-65
2024/03/22 00:12:08;;;;;;;74.65;52.05;;;;;;;;;;5152090;27;20026;-64
2024/03/22 00:14:34;;;;;;;81.03;52.70;;;;;;;;;;5145702;27;20098;-65
2024/03/22 00:17:00;;;;;;;73.85;51.03;;;;;;;;;;5149509;27;20052;-64
2024/03/22 00:19:26;;;;;;;82.38;54.40;;;;;;;;;;5150466;27;20015;-64
2024/03/22 00:21:52;;;;;;;80.07;56.33;;;;;;;;;;5134657;27;20455;-64
2024/03/22 00:24:18;;;;;;;81.47;55.90;;;;;;;;;;5144003;27;20058;-65
2024/03/22 00:26:44;;;;;;;84.93;57.00;;;;;;;;;;5134339;27;20034;-65
2024/03/22 00:29:10;;;;;;;85.70;58.33;;;;;;;;;;5152829;27;20083;-64
2024/03/22 00:31:36;;;;;;;85.65;57.85;;;;;;;;;;5143705;27;20031;-64
2024/03/22 00:34:02;;;;;;;90.57;59.38;;;;;;;;;;5152427;27;20023;-64
2024/03/22 00:36:28;;;;;;;90.55;58.08;;;;;;;;;;5153030;27;20049;-64
2024/03/22 00:38:54;;;;;;;89.82;59.42;;;;;;;;;;5147949;27;20084;-64
2024/03/22 00:41:20;;;;;;;83.10;58.30;;;;;;;;;;5147520;27;20109;-64
2024/03/22 00:43:46;;;;;;;88.68;60.58;;;;;;;;;;5135132;27;20022;-64
2024/03/22 00:46:12;;;;;;;86.88;60.60;;;;;;;;;;5144671;27;20031;-64
2024/03/22 00:48:38;;;;;;;85.97;58.83;;;;;;;;;;5149827;27;20086;-65
2024/03/22 00:51:04;;;;;;;88.80;61.03;;;;;;;;;;5153606;27;20118;-64
2024/03/22 00:53:30;;;;;;;86.72;59.83;;;;;;;;;;5152682;27;20086;-64
2024/03/22 00:55:58;;;;;;;86.63;59.70;;;;;;;;;;5152664;27;20033;-64
2024/03/22 00:58:25;;;;;;;86.63;59.60;;;;;;;;;;5145846;27;20027;-64
2024/03/22 01:00:51;;;;;;;86.05;60.03;;;;;;;;;;5134616;27;20015;-64
2024/03/22 01:03:17;;;;;;;88.10;60.33;;;;;;;;;;5151758;27;20053;-65
2024/03/22 01:05:44;;;;;;;94.10;63.00;;;;;;;;;;5151528;27;20022;-64
2024/03/22 01:08:10;;;;;;;87.50;61.15;;;;;;;;;;5151507;27;20035;-64
2024/03/22 01:10:36;;;;;;;89.95;60.70;;;;;;;;;;5134450;27;20357;-64
2024/03/22 01:13:02;;;;;;;86.32;59.65;;;;;;;;;;5153494;27;20023;-64
2024/03/22 01:15:28;;;;;;;95.32;61.78;;;;;;;;;;5133778;27;20026;-64
2024/03/22 01:17:54;;;;;;;90.53;62.70;;;;;;;;;;5125810;28;20035;-64
2024/03/22 01:20:20;;;;;;;92.28;62.40;;;;;;;;;;5147787;27;20027;-64
2024/03/22 01:22:46;;;;;;;94.47;63.70;;;;;;;;;;5136434;27;20054;-64
2024/03/22 01:25:12;;;;;;;93.45;64.32;;;;;;;;;;5134319;27;20385;-64
2024/03/22 01:27:39;;;;;;;93.18;61.88;;;;;;;;;;5134365;27;20051;-64
2024/03/22 01:30:05;;;;;;;90.43;61.78;;;;;;;;;;5152810;27;20023;-64
2024/03/22 01:32:31;;;;;;;95.78;63.35;;;;;;;;;;5155879;27;20019;-64
2024/03/22 01:34:58;;;;;;;98.45;65.25;;;;;;;;;;5123468;27;20373;-64
2024/03/22 01:37:24;;;;;;;93.13;63.70;;;;;;;;;;5153491;27;20034;-64
2024/03/22 01:39:50;;;;;;;94.88;63.55;;;;;;;;;;5152426;27;20023;-65
2024/03/22 01:42:16;;;;;;;100.45;65.20;;;;;;;;;;5152455;27;20033;-64
2024/03/22 01:44:42;;;;;;;91.68;63.00;;;;;;;;;;5155221;27;20394;-64
2024/03/22 01:47:08;;;;;;;91.80;63.42;;;;;;;;;;5155101;27;20079;-63
2024/03/22 01:49:34;;;;;;;93.57;62.83;;;;;;;;;;5155163;27;20029;-64
2024/03/22 01:52:00;;;;;;;92.18;62.88;;;;;;;;;;5136697;27;20498;-64
2024/03/22 01:54:26;;;;;;;96.70;64.20;;;;;;;;;;5150295;27;20027;-64
2024/03/22 01:56:52;;;;;;;95.07;64.25;;;;;;;;;;5145586;27;20042;-64
2024/03/22 01:59:18;;;;;;;96.70;64.95;;;;;;;;;;5148055;27;20030;-64
2024/03/22 02:01:45;;;;;;;97.78;65.82;;;;;;;;;;5135761;27;20112;-64
2024/03/22 02:04:11;;;;;;;96.53;65.28;;;;;;;;;;5156315;27;20034;-64
2024/03/22 02:06:36;;;;;;;95.18;64.50;;;;;;;;;;5137308;27;20022;-64
2024/03/22 02:09:05;;;;;;;95.10;64.53;;;;;;;;;;5140752;27;20486;-64
2024/03/22 02:11:31;;;;;;;92.60;63.90;;;;;;;;;;5155956;27;20091;-64
2024/03/22 02:13:58;;;;;;;91.47;64.28;;;;;;;;;;5155849;27;20026;-65
2024/03/22 02:16:24;;;;;;;96.97;63.95;;;;;;;;;;5156102;27;20041;-64
2024/03/22 02:18:51;;;;;;;93.43;63.17;;;;;;;;;;5137586;27;20495;-64
2024/03/22 02:21:17;;;;;;;95.13;63.33;;;;;;;;;;5156099;27;20414;-64
2024/03/22 02:23:43;;;;;;;93.50;63.22;;;;;;;;;;5133566;27;20055;-65
2024/03/22 02:26:09;;;;;;;96.25;64.78;;;;;;;;;;5119179;27;20035;-64
2024/03/22 02:28:36;;;;;;;95.30;64.88;;;;;;;;;;5119112;27;20023;-64
2024/03/22 02:31:02;;;;;;;96.25;62.08;;;;;;;;;;5130685;27;20068;-64
2024/03/22 02:33:28;;;;;;;93.03;62.95;;;;;;;;;;5127572;27;20033;-64
2024/03/22 02:35:54;;;;;;;96.95;66.10;;;;;;;;;;5133523;27;20031;-64
2024/03/22 02:38:20;;;;;;;95.22;62.10;;;;;;;;;;5132540;27;20064;-64
2024/03/22 02:40:47;;;;;;;100.13;64.90;;;;;;;;;;5129515;27;20019;-64
2024/03/22 02:43:13;;;;;;;90.43;63.65;;;;;;;;;;5133196;27;20058;-64
2024/03/22 02:45:39;;;;;;;94.10;63.13;;;;;;;;;;5133892;27;20426;-64
2024/03/22 02:48:06;;;;;;;92.55;63.72;;;;;;;;;;5133797;27;20106;-64
2024/03/22 02:50:36;;;;;;;95.45;62.42;;;;;;;;;;5133399;27;20071;-64
2024/03/22 02:53:02;;;;;;;97.05;63.55;;;;;;;;;;5125504;27;20083;-64
2024/03/22 02:55:28;;;;;;;92.43;63.42;;;;;;;;;;5130334;27;20038;-64
2024/03/22 02:57:56;;;;;;;93.20;60.83;;;;;;;;;;5104783;27;20035;-64
2024/03/22 03:00:22;;;;;;;92.45;62.60;;;;;;;;;;5132799;27;20813;-64
2024/03/22 03:02:48;;;;;;;98.38;63.42;;;;;;;;;;5124152;27;20092;-64
2024/03/22 03:05:14;;;;;;;94.68;62.53;;;;;;;;;;5125874;27;20062;-64
2024/03/22 03:07:40;;;;;;;87.63;60.90;;;;;;;;;;5131948;27;20444;-64
2024/03/22 03:10:06;;;;;;;94.50;61.95;;;;;;;;;;5130479;27;20069;-64
2024/03/22 03:12:33;;;;;;;91.00;60.90;;;;;;;;;;5144442;27;20027;-64
2024/03/22 03:14:59;;;;;;;91.97;62.13;;;;;;;;;;5149452;27;20027;-64
2024/03/22 03:17:25;;;;;;;94.00;63.03;;;;;;;;;;5133215;27;20073;-64
2024/03/22 03:19:51;;;;;;;94.25;62.55;;;;;;;;;;5120125;27;20461;-64
2024/03/22 03:22:17;;;;;;;99.20;63.45;;;;;;;;;;5129416;27;20027;-64
2024/03/22 03:24:44;;;;;;;93.55;62.22;;;;;;;;;;5146729;27;20091;-64
2024/03/22 03:27:10;;;;;;;91.93;60.92;;;;;;;;;;5139198;27;20155;-64
2024/03/22 03:29:36;;;;;;;94.22;62.38;;;;;;;;;;5141898;27;20030;-64
2024/03/22 03:32:02;;;;;;;99.45;63.35;;;;;;;;;;5149541;27;20105;-64
2024/03/22 03:34:28;;;;;;;92.80;61.60;;;;;;;;;;5150738;27;20138;-64
2024/03/22 03:36:54;;;;;;;93.53;64.05;;;;;;;;;;5153715;27;20381;-64
2024/03/22 03:39:20;;;;;;;93.47;61.50;;;;;;;;;;5152174;27;20027;-64
2024/03/22 03:41:46;;;;;;;95.13;61.00;;;;;;;;;;5150430;27;20499;-64
2024/03/22 03:44:12;;;;;;;97.72;62.58;;;;;;;;;;5144155;27;20125;-64
2024/03/22 03:46:38;;;;;;;96.07;63.35;;;;;;;;;;5154206;27;20022;-64
2024/03/22 03:49:04;;;;;;;95.32;63.17;;;;;;;;;;5148569;27;20537;-64
2024/03/22 03:51:30;;;;;;;101.63;64.75;;;;;;;;;;5145742;27;20054;-64
2024/03/22 03:53:56;;;;;;;97.70;62.97;;;;;;;;;;5130345;27;20069;-65
2024/03/22 03:56:22;;;;;;;90.40;61.42;;;;;;;;;;5153002;27;20011;-65
2024/03/22 03:58:48;;;;;;;94.72;62.30;;;;;;;;;;5152950;27;20540;-63
2024/03/22 04:01:14;;;;;;;91.28;59.47;;;;;;;;;;5151219;27;20129;-63
2024/03/22 04:03:40;;;;;;;94.80;62.35;;;;;;;;;;5153748;27;20019;-64
2024/03/22 04:06:06;;;;;;;97.57;62.78;;;;;;;;;;5143031;27;20345;-64
2024/03/22 04:08:32;;;;;;;96.68;62.55;;;;;;;;;;5141523;27;20019;-64
2024/03/22 04:10:58;;;;;;;88.93;61.05;;;;;;;;;;5151081;27;20031;-64
2024/03/22 04:19:31;;;;;;;96.30;62.55;;;;;;;;;;5152485;27;20041;-64
2024/03/22 04:21:57;;;;;;;99.28;65.57;;;;;;;;;;5147990;27;20023;-64
2024/03/22 04:24:23;;;;;;;100.57;63.55;;;;;;;;;;5153464;27;20066;-64
2024/03/22 04:26:49;;;;;;;93.82;63.67;;;;;;;;;;5147793;27;20029;-65
2024/03/22 04:29:15;;;;;;;104.13;65.15;;;;;;;;;;5153009;27;20462;-64
2024/03/22 04:31:41;;;;;;;100.53;66.45;;;;;;;;;;5147053;27;20014;-64
2024/03/22 04:34:07;;;;;;;95.03;64.80;;;;;;;;;;5153091;27;20415;-64
2024/03/22 04:36:34;;;;;;;100.55;63.80;;;;;;;;;;5153213;27;20023;-64
2024/03/22 04:39:00;;;;;;;98.68;63.63;;;;;;;;;;5153148;27;20171;-64
2024/03/22 04:41:26;;;;;;;101.72;65.22;;;;;;;;;;5151363;27;20057;-64
2024/03/22 04:43:52;;;;;;;101.82;66.80;;;;;;;;;;5149458;27;20097;-63
2024/03/22 04:46:18;;;;;;;97.95;64.38;;;;;;;;;;5149822;27;20026;-64
2024/03/22 04:48:44;;;;;;;95.32;62.97;;;;;;;;;;5134827;27;20033;-64
2024/03/22 04:51:10;;;;;;;101.22;65.18;;;;;;;;;;5152688;27;20105;-64
2024/03/22 04:53:36;;;;;;;96.50;65.15;;;;;;;;;;5140738;27;20022;-64
2024/03/22 04:56:02;;;;;;;96.97;64.90;;;;;;;;;;5152140;27;20456;-64
2024/03/22 04:58:29;;;;;;;92.65;62.58;;;;;;;;;;5151346;27;20064;-63
2024/03/22 05:00:58;;;;;;;99.93;64.90;;;;;;;;;;5151999;27;20023;-64
2024/03/22 05:03:24;;;;;;;100.63;65.53;;;;;;;;;;5153110;27;20034;-63
2024/03/22 05:05:50;;;;;;;101.45;67.60;;;;;;;;;;5153739;27;20030;-64
2024/03/22 05:08:17;;;;;;;103.13;64.38;;;;;;;;;;5137100;27;20034;-64
2024/03/22 05:10:43;;;;;;;103.22;67.22;;;;;;;;;;5156512;27;20376;-64
2024/03/22 05:13:09;;;;;;;98.50;65.68;;;;;;;;;;5127950;27;20019;-63
2024/03/22 05:15:35;;;;;;;99.85;67.07;;;;;;;;;;5139190;27;20491;-64
2024/03/22 05:18:01;;;;;;;101.68;66.55;;;;;;;;;;5144559;27;20047;-64
2024/03/22 05:20:27;;;;;;;99.68;67.18;;;;;;;;;;5143091;27;20532;-64
2024/03/22 05:22:53;;;;;;;104.75;68.57;;;;;;;;;;5145901;27;20027;-64
2024/03/22 05:25:19;;;;;;;105.55;65.97;;;;;;;;;;5155763;27;20051;-64
2024/03/22 05:27:45;;;;;;;103.03;68.55;;;;;;;;;;5154389;27;20086;-64
2024/03/22 05:30:13;;;;;;;101.90;67.13;;;;;;;;;;5155859;27;20366;-64
2024/03/22 05:32:40;;;;;;;101.35;65.82;;;;;;;;;;5156951;27;20018;-64
2024/03/22 05:35:06;;;;;;;103.30;66.30;;;;;;;;;;5156569;27;20091;-64
2024/03/22 05:37:33;;;;;;;105.78;67.03;;;;;;;;;;5138076;27;20062;-64
2024/03/22 05:40:00;;;;;;;99.13;64.47;;;;;;;;;;5145887;27;20080;-64
2024/03/22 05:42:26;;;;;;;104.68;66.65;;;;;;;;;;5151062;27;20019;-64
2024/03/22 05:44:52;;;;;;;101.75;65.82;;;;;;;;;;5126403;27;20018;-64
2024/03/22 05:47:19;;;;;;;99.22;65.00;;;;;;;;;;5156651;27;20030;-63
2024/03/22 05:49:45;;;;;;;103.47;66.85;;;;;;;;;;5156581;27;20506;-64
2024/03/22 05:52:12;;;;;;;108.35;65.90;;;;;;;;;;5156445;27;20388;-64
2024/03/22 05:54:38;;;;;;;98.72;64.43;;;;;;;;;;5126543;27;20022;-64
2024/03/22 05:57:05;;;;;;;104.95;65.72;;;;;;;;;;5151835;27;20095;-64
2024/03/22 05:59:31;;;;;;;100.70;65.38;;;;;;;;;;5148011;27;20109;-64
2024/03/22 06:01:57;;;;;;;91.90;60.25;;;;;;;;;;5154018;27;20022;-64
2024/03/22 06:04:26;;;;;;;98.03;65.30;;;;;;;;;;5154792;27;20023;-64
2024/03/22 06:06:52;;;;;;;99.65;65.25;;;;;;;;;;5151223;27;20046;-63
2024/03/22 06:09:24;;;;;;;96.70;63.88;;;;;;;;;;5154011;27;20095;-64
2024/03/22 06:11:53;;;;;;;94.07;61.90;;;;;;;;;;5140799;27;20019;-64
2024/03/22 06:14:19;;;;;;;91.15;61.17;;;;;;;;;;5141064;27;20418;-64
2024/03/22 06:19:48;;;;;;;96.80;63.90;;;;;;;;;;5149939;27;20472;-64
2024/03/22 06:22:14;;;;;;;102.88;63.10;;;;;;;;;;5148628;27;20042;-63
2024/03/22 06:24:40;;;;;;;90.75;60.50;;;;;;;;;;5140546;27;20062;-64
2024/03/22 06:27:07;;;;;;;90.05;60.17;;;;;;;;;;5140618;27;20030;-63
2024/03/22 06:29:33;;;;;;;93.82;60.53;;;;;;;;;;5149118;27;20034;-64
2024/03/22 06:31:59;;;;;;;96.85;62.10;;;;;;;;;;5135981;27;20016;-64
2024/03/22 06:34:25;;;;;;;93.68;59.55;;;;;;;;;;5154395;27;20058;-61
2024/03/22 06:36:51;;;;;;;100.32;64.22;;;;;;;;;;5152720;27;20385;-61
2024/03/22 06:39:17;;;;;;;87.50;58.25;;;;;;;;;;5147136;27;20168;-61
2024/03/22 06:41:43;;;;;;;91.30;62.35;;;;;;;;;;5154864;27;20433;-61
2024/03/22 06:44:11;;;;;;;93.38;60.55;;;;;;;;;;5135028;27;20086;-61
2024/03/22 06:46:37;;;;;;;93.10;62.92;;;;;;;;;;5134953;27;20024;-61
2024/03/22 06:49:04;;;;;;;91.30;61.30;;;;;;;;;;5151656;27;20030;-62
2024/03/22 06:51:30;;;;;;;87.75;59.47;;;;;;;;;;5149253;27;20452;-61
2024/03/22 06:53:56;;;;;;;92.55;59.78;;;;;;;;;;5155380;27;20037;-61
2024/03/22 06:56:22;;;;;;;85.30;58.72;;;;;;;;;;5149266;27;20045;-61
2024/03/22 06:58:48;;;;;;;87.07;59.08;;;;;;;;;;5151901;27;20481;-61
2024/03/22 07:01:14;;;;;;;91.85;59.85;;;;;;;;;;5152755;27;20023;-61
2024/03/22 07:03:40;;;;;;;89.10;56.65;;;;;;;;;;5151357;27;20022;-61
2024/03/22 07:06:07;;;;;;;89.60;56.38;;;;;;;;;;5155060;27;20054;-61
2024/03/22 07:08:34;;;;;;;90.28;58.95;;;;;;;;;;5155327;27;20027;-61
2024/03/22 07:11:00;;;;;;;85.95;55.28;;;;;;;;;;5133967;27;20106;-62
2024/03/22 07:13:26;;;;;;;86.18;56.83;;;;;;;;;;5134555;27;20057;-62
2024/03/22 07:15:52;;;;;;;89.45;57.80;;;;;;;;;;5149438;27;20039;-62
2024/03/22 07:18:18;;;;;;;73.20;51.75;;;;;;;;;;5138343;27;20063;-61
2024/03/22 07:20:45;;;;;;;74.88;50.22;;;;;;;;;;5146321;27;20063;-61
2024/03/22 07:23:11;;;;;;;71.32;49.92;;;;;;;;;;5136040;27;20388;-61
2024/03/22 07:25:37;;;;;;;78.30;51.85;;;;;;;;;;5118516;27;20155;-62
2024/03/22 07:28:04;;;;;;;78.85;51.83;;;;;;;;;;5151019;27;20500;-61
2024/03/22 07:30:29;;;;;;;82.07;52.30;;;;;;;;;;5133105;27;20105;-61
2024/03/22 07:32:55;;;;;;;75.10;50.42;;;;;;;;;;5154388;27;20123;-61
2024/03/22 07:35:21;;;;;;;72.00;47.88;;;;;;;;;;5154428;27;20031;-61
2024/03/22 07:37:47;;;;;;;68.03;43.97;;;;;;;;;;5152790;27;20477;-61
2024/03/22 07:40:13;;;;;;;71.70;47.15;;;;;;;;;;5139389;27;20068;-62
2024/03/22 07:42:52;;;;;;;71.50;45.38;;;;;;;;;;5132552;27;20038;-62
2024/03/22 07:45:18;;;;;;;67.10;47.05;;;;;;;;;;5144289;27;20027;-61
2024/03/22 07:47:56;;;;;;;70.03;49.40;;;;;;;;;;5129035;27;20035;-62
2024/03/22 07:50:22;;;;;;;68.65;47.67;;;;;;;;;;5141972;27;20167;-61
2024/03/22 07:52:48;;;;;;;66.15;46.47;;;;;;;;;;5148127;27;20106;-61
2024/03/22 07:55:14;;;;;;;71.38;46.58;;;;;;;;;;5153421;27;20383;-61
2024/03/22 07:57:40;;;;;;;65.05;43.65;;;;;;;;;;5129806;27;20027;-61
2024/03/22 08:00:07;;;;;;;64.75;45.97;;;;;;;;;;5151328;27;20204;-61
2024/03/22 08:02:33;;;;;;;64.70;44.42;;;;;;;;;;5124347;27;20025;-62
2024/03/22 08:04:59;;;;;;;70.95;46.78;;;;;;;;;;5140235;27;20118;-63
2024/03/22 08:07:25;;;;;;;63.97;44.13;;;;;;;;;;5142445;27;20030;-64
2024/03/22 08:09:51;;;;;;;64.05;43.55;;;;;;;;;;5142534;27;20015;-66
2024/03/22 08:12:19;;;;;;;63.00;44.45;;;;;;;;;;5145478;27;20034;-63
2024/03/22 08:14:45;;;;;;;62.40;42.67;;;;;;;;;;5142400;27;20023;-63
2024/03/22 08:17:11;;;;;;;60.00;41.92;;;;;;;;;;5126858;27;20027;-62
2024/03/22 08:19:38;;;;;;;54.85;39.05;;;;;;;;;;5140468;27;20490;-65
2024/03/22 08:22:04;;;;;;;62.15;42.97;;;;;;;;;;5146288;27;20027;-67
2024/03/22 08:24:30;;;;;;;55.85;40.00;;;;;;;;;;5148945;27;20047;-65
2024/03/22 08:26:56;;;;;;;59.55;43.50;;;;;;;;;;5123235;27;20029;-68
2024/03/22 08:29:22;;;;;;;62.35;42.60;;;;;;;;;;5138730;27;20028;-65
2024/03/22 08:31:48;;;;;;;66.53;44.38;;;;;;;;;;5149622;27;20047;-64
2024/03/22 08:34:15;;;;;;;63.25;43.30;;;;;;;;;;5153968;27;20073;-64
2024/03/22 08:36:41;;;;;;;60.65;41.53;;;;;;;;;;5153068;27;20010;-64
2024/03/22 08:39:09;;;;;;;62.58;41.55;;;;;;;;;;5153461;27;20178;-64
2024/03/22 08:41:36;;;;;;;56.97;39.78;;;;;;;;;;5155258;27;20023;-64
2024/03/22 08:44:02;;;;;;;62.22;40.83;;;;;;;;;;5157681;27;20457;-64
2024/03/22 08:46:28;;;;;;;57.42;41.40;;;;;;;;;;5157407;27;20030;-64
2024/03/22 08:48:54;;;;;;;59.63;41.38;;;;;;;;;;5157691;27;20478;-64
2024/03/22 08:51:20;;;;;;;56.47;39.83;;;;;;;;;;5157268;27;20019;-64
2024/03/22 08:53:46;;;;;;;57.20;40.40;;;;;;;;;;5152777;27;20016;-63
2024/03/22 08:56:12;;;;;;;60.45;40.35;;;;;;;;;;5149460;27;20088;-63
2024/03/22 08:58:38;;;;;;;63.00;42.53;;;;;;;;;;5157388;27;20026;-63
2024/03/22 09:01:04;;;;;;;59.63;41.22;;;;;;;;;;5148148;27;20072;-63
2024/03/22 09:03:30;;;;;;;62.50;42.67;;;;;;;;;;5153364;27;20117;-64
2024/03/22 09:05:56;;;;;;;59.45;42.67;;;;;;;;;;5156421;27;20460;-64
2024/03/22 09:08:22;;;;;;;62.90;41.78;;;;;;;;;;5142242;27;20027;-64
2024/03/22 09:10:48;;;;;;;59.13;40.85;;;;;;;;;;5153750;27;20101;-64
2024/03/22 09:13:14;;;;;;;59.47;42.13;;;;;;;;;;5138603;27;20038;-64
2024/03/22 09:15:40;;;;;;;61.83;41.45;;;;;;;;;;5157540;27;20023;-64
2024/03/22 09:18:06;;;;;;;55.70;41.30;;;;;;;;;;5138591;27;20034;-63
2024/03/22 09:20:32;;;;;;;55.63;38.85;;;;;;;;;;5157139;27;20027;-64
2024/03/22 09:22:58;;;;;;;54.38;40.03;;;;;;;;;;5150590;27;20023;-63
2024/03/22 09:25:24;;;;;;;55.25;40.15;;;;;;;;;;5145775;27;20047;-64
2024/03/22 09:27:50;;;;;;;55.35;38.58;;;;;;;;;;5156393;27;20432;-64
2024/03/22 09:33:20;;;;;;;59.80;38.90;;;;;;;;;;5154343;27;20383;-64
2024/03/22 09:35:49;;;;;;;57.28;40.08;;;;;;;;;;5157150;27;20023;-64
2024/03/22 09:38:15;;;;;;;61.10;39.78;;;;;;;;;;5156667;27;20356;-64
2024/03/22 09:40:41;;;;;;;56.05;38.63;;;;;;;;;;5156864;27;20027;-64
2024/03/22 09:43:08;;;;;;;54.50;39.25;;;;;;;;;;5156931;27;20118;-64
2024/03/22 09:45:34;;;;;;;51.42;38.03;;;;;;;;;;5157093;27;20122;-64
2024/03/22 09:48:01;;;;;;;62.35;41.35;;;;;;;;;;5156668;27;20031;-64
2024/03/22 09:50:27;;;;;;;51.22;36.97;;;;;;;;;;5156748;27;20023;-65
2024/03/22 09:52:53;;;;;;;55.08;38.75;;;;;;;;;;5155985;27;20034;-64
2024/03/22 09:55:25;;;;;;;58.30;40.25;;;;;;;;;;5156239;27;20159;-64
2024/03/22 09:57:53;;;;;;;56.85;39.08;;;;;;;;;;5156417;27;20476;-64
2024/03/22 10:00:21;;;;;;;57.75;39.65;;;;;;;;;;5156266;27;20027;-64
2024/03/22 10:02:47;;;;;;;57.50;39.55;;;;;;;;;;5156370;27;20038;-64
2024/03/22 10:05:13;;;;;;;56.30;39.78;;;;;;;;;;5156075;27;20018;-64
2024/03/22 10:07:39;;;;;;;53.92;37.13;;;;;;;;;;5156292;27;20026;-64
2024/03/22 10:10:07;;;;;;;54.00;37.53;;;;;;;;;;5137671;27;20054;-64
2024/03/22 10:12:33;;;;;;;56.00;37.88;;;;;;;;;;5156460;27;20049;-64
2024/03/22 10:14:59;;;;;;;54.03;36.45;;;;;;;;;;5156446;27;20372;-64
2024/03/22 10:17:29;;;;;;;51.88;37.50;;;;;;;;;;5151693;27;20035;-64
2024/03/22 10:19:55;;;;;;;49.03;35.13;;;;;;;;;;5151818;27;20141;-64
2024/03/22 10:22:21;;;;;;;55.88;38.13;;;;;;;;;;5152110;27;20019;-65
2024/03/22 10:24:47;;;;;;;51.67;36.28;;;;;;;;;;5152715;27;20062;-64
2024/03/22 10:27:14;;;;;;;51.25;35.45;;;;;;;;;;5153725;27;20136;-64
2024/03/22 10:29:41;;;;;;;49.58;33.80;;;;;;;;;;5153274;27;20467;-64
2024/03/22 10:32:07;;;;;;;46.88;33.47;;;;;;;;;;5135806;27;20026;-64
2024/03/22 10:34:33;;;;;;;49.58;32.95;;;;;;;;;;5153895;27;20380;-64
2024/03/22 10:37:03;;;;;;;42.72;32.28;;;;;;;;;;5150494;27;20023;-64
2024/03/22 10:39:54;;;;;;;50.90;33.83;;;;;;;;;;5120646;27;20053;-64
2024/03/22 10:42:20;;;;;;;50.58;35.13;;;;;;;;;;5155146;27;20067;-64
2024/03/22 10:44:46;;;;;;;49.47;33.38;;;;;;;;;;5155500;27;20459;-64
2024/03/22 10:47:13;;;;;;;47.75;33.22;;;;;;;;;;5136764;27;20023;-64
2024/03/22 10:49:39;;;;;;;49.20;35.42;;;;;;;;;;5155012;27;20019;-64
2024/03/22 10:52:08;;;;;;;46.67;33.83;;;;;;;;;;5155434;27;20026;-64
2024/03/22 10:54:39;;;;;;;46.03;32.95;;;;;;;;;;5155333;27;20023;-65
2024/03/22 10:57:06;;;;;;;50.92;36.08;;;;;;;;;;5155054;27;20488;-64
2024/03/22 10:59:35;;;;;;;48.78;34.80;;;;;;;;;;5136649;27;20113;-65
2024/03/22 11:05:07;;;;;;;50.53;35.08;;;;;;;;;;5148175;27;20070;-64
2024/03/22 11:07:33;;;;;;;50.80;35.85;;;;;;;;;;5145506;27;20100;-64
2024/03/22 11:10:03;;;;;;;51.20;36.30;;;;;;;;;;5155291;27;20023;-64
2024/03/22 11:12:33;;;;;;;51.95;37.83;;;;;;;;;;5155086;27;20034;-64
2024/03/22 11:15:00;;;;;;;54.28;38.20;;;;;;;;;;5154861;27;20019;-64
2024/03/22 11:17:25;;;;;;;49.55;34.70;;;;;;;;;;5154768;27;20119;-64
2024/03/22 11:19:52;;;;;;;49.33;35.28;;;;;;;;;;5155016;27;20100;-64
2024/03/22 11:22:18;;;;;;;55.80;37.00;;;;;;;;;;5134646;27;20035;-64
2024/03/22 11:24:44;;;;;;;49.35;36.45;;;;;;;;;;5148399;27;20047;-64
2024/03/22 11:27:11;;;;;;;52.70;36.58;;;;;;;;;;5154661;27;20042;-65
2024/03/22 11:29:41;;;;;;;53.58;36.42;;;;;;;;;;5155038;27;20046;-64
2024/03/22 11:32:10;;;;;;;50.70;35.65;;;;;;;;;;5154656;27;20060;-64
2024/03/22 11:34:37;;;;;;;54.30;37.35;;;;;;;;;;5154572;27;20121;-64
2024/03/22 11:37:03;;;;;;;47.63;34.28;;;;;;;;;;5154397;27;20031;-64
2024/03/22 11:39:29;;;;;;;53.83;36.15;;;;;;;;;;5154463;27;20019;-64
2024/03/22 11:41:55;;;;;;;48.95;34.50;;;;;;;;;;5154590;27;20027;-64
2024/03/22 11:44:25;;;;;;;44.55;32.75;;;;;;;;;;5154243;27;20031;-64
2024/03/22 11:46:51;;;;;;;50.42;33.83;;;;;;;;;;5154387;27;20014;-65
2024/03/22 11:49:18;;;;;;;46.95;32.78;;;;;;;;;;5154371;27;20026;-64
2024/03/22 11:51:53;;;;;;;46.13;32.42;;;;;;;;;;5153737;27;20018;-65
2024/03/22 11:54:23;;;;;;;52.75;36.05;;;;;;;;;;5153884;27;20506;-64
2024/03/22 11:56:52;;;;;;;47.28;36.30;;;;;;;;;;5153810;27;20325;-64
2024/03/22 11:59:21;;;;;;;50.85;35.47;;;;;;;;;;5154257;27;20018;-64
2024/03/22 12:01:47;;;;;;;56.05;38.53;;;;;;;;;;5154132;27;20025;-64
2024/03/22 12:04:16;;;;;;;47.97;35.55;;;;;;;;;;5139509;27;20133;-64
2024/03/22 12:06:45;;;;;;;50.08;35.00;;;;;;;;;;5154124;27;20099;-64
2024/03/22 12:09:13;;;;;;;46.53;34.80;;;;;;;;;;5153981;27;20022;-64
2024/03/22 12:11:40;;;;;;;45.13;32.58;;;;;;;;;;5154043;27;20019;-64
2024/03/22 12:14:06;;;;;;;44.78;32.95;;;;;;;;;;5153893;27;20022;-64
2024/03/22 12:16:32;;;;;;;43.47;32.05;;;;;;;;;;5135156;27;20054;-64
2024/03/22 12:18:58;;;;;;;39.42;30.13;;;;;;;;;;5135086;27;20088;-64
2024/03/22 12:21:24;;;;;;;37.75;27.33;;;;;;;;;;5153701;27;20019;-63
2024/03/22 12:23:50;;;;;;;43.40;30.70;;;;;;;;;;5153664;27;20050;-64
2024/03/22 12:26:16;;;;;;;37.65;26.48;;;;;;;;;;5153866;27;20035;-63
2024/03/22 12:28:42;;;;;;;36.13;24.63;;;;;;;;;;5153607;27;20075;-64
2024/03/22 12:31:09;;;;;;;29.48;23.23;;;;;;;;;;5153595;27;20023;-64
2024/03/22 12:34:12;;;;;;;33.97;24.92;;;;;;;;;;5153288;27;20019;-64
2024/03/22 12:36:38;;;;;;;38.33;28.38;;;;;;;;;;5153332;27;20033;-64
2024/03/22 12:39:05;;;;;;;40.17;29.40;;;;;;;;;;5153552;27;20494;-65
2024/03/22 12:41:31;;;;;;;38.30;29.15;;;;;;;;;;5153671;27;20026;-64
2024/03/22 12:43:58;;;;;;;35.47;26.10;;;;;;;;;;5134998;27;20058;-64
2024/03/22 12:46:25;;;;;;;36.97;27.80;;;;;;;;;;5146472;27;20031;-64
2024/03/22 12:48:51;;;;;;;42.13;32.30;;;25.20;99.90;;;;;;5146232;27;20467;-64
2024/03/22 12:51:17;;;;;;;50.53;35.45;;;25.20;99.90;;;;;;5138864;27;20029;-65
2024/03/22 12:53:42;;;;;;;41.53;32.42;;;24.40;99.90;;;;;;5153499;27;20695;-65
2024/03/22 12:56:08;;;;;;;46.63;34.63;;;24.80;99.90;;;;;;5134910;27;20057;-65
2024/03/22 12:58:40;;;;;;;43.42;34.30;;;;;;;;;;5153741;27;20062;-64
2024/03/22 13:01:06;;;;;;;40.17;31.55;;;;;;;;;;5153187;27;20433;-65
2024/03/22 13:03:33;;;;;;;42.42;33.15;;;;;;;;;;5153425;27;20019;-65
2024/03/22 13:06:11;;;;;;;43.47;33.33;;;;;;;;;;5153311;27;20022;-65
2024/03/22 13:08:37;;;;;;;41.88;33.78;;;;;;;;;;5141193;27;20538;-65
2024/03/22 13:11:03;;;;;;;41.45;32.85;;;;;;;;;;5134812;27;20046;-65
2024/03/22 13:13:29;;;;;;;42.55;32.85;;;;;;;;;;5153563;27;20083;-65
2024/03/22 13:15:57;;;;;;;40.78;32.70;;;;;;;;;;5153206;27;20132;-65
2024/03/22 13:18:23;;;;;;;35.88;28.58;;;;;;;;;;5153087;27;20428;-65
2024/03/22 13:20:49;;;;;;;37.00;31.13;;;;;;;;;;5134567;27;20064;-65
2024/03/22 13:23:15;;;;;;;38.22;32.55;;;;;;;;;;5151710;27;20566;-65
2024/03/22 13:25:41;;;;;;;36.80;31.73;;;;;;;;;;5153346;27;20026;-65
2024/03/22 13:28:07;;;;;;;38.70;32.33;;;;;;;;;;5155702;27;20345;-65
2024/03/22 13:30:35;;;;;;;38.72;30.92;;;;;;;;;;5157182;27;20025;-65
2024/03/22 13:33:01;;;;;;;38.67;34.00;;;;;;;;;;5157083;27;20061;-65
2024/03/22 13:35:27;;;;;;;43.97;35.22;;;;;;;;;;5156853;27;20023;-65
2024/03/22 13:37:53;;;;;;;38.58;32.17;;;;;;;;;;5156888;27;20070;-65
2024/03/22 13:43:23;;;;;;;38.88;33.05;;;;;;;;;;5154911;27;20167;-64
2024/03/22 13:45:53;;;;;;;36.17;32.30;;;;;;;;;;5157047;27;20459;-64
2024/03/22 13:51:25;;;;;;;41.90;31.75;;;;;;;;;;5150186;27;20114;-65
2024/03/22 13:53:51;;;;;;;39.78;32.88;;;;;;;;;;5137531;27;20030;-64
2024/03/22 13:56:16;;;;;;;36.60;30.90;;;;;;;;;;5156521;27;20324;-65
2024/03/22 13:58:43;;;;;;;36.75;29.98;;;;;;;;;;5156338;27;20038;-64
2024/03/22 14:01:10;;;;;;;40.15;31.10;;;;;;;;;;5137872;27;20037;-64
2024/03/22 14:03:37;;;;;;;35.92;29.33;;;;;;;;;;5156530;27;20021;-64
2024/03/22 14:06:03;;;;;;;37.78;30.13;;;;;;;;;;5156499;27;20533;-64
2024/03/22 14:08:29;;;;;;;35.22;28.75;;;;;;;;;;5156407;27;20019;-64
2024/03/22 14:10:55;;;;;;;35.55;28.00;;;;;;;;;;5156444;27;20079;-64
2024/03/22 14:13:21;;;;;;;27.02;22.17;;;;;;;;;;5156221;27;20021;-64
2024/03/22 14:15:47;;;;;;;32.78;26.67;;;;;;;;;;5156578;27;20019;-64
2024/03/22 14:18:13;;;;;;;39.42;31.58;;;;;;;;;;5156352;27;20030;-64
2024/03/22 14:20:39;;;;;;;42.67;33.35;;;;;;;;;;5137367;27;20376;-64
2024/03/22 14:23:07;;;;;;;38.63;29.83;;;;;;;;;;5155689;27;20031;-63
2024/03/22 14:25:32;;;;;;;44.08;34.22;;;;;;;;;;5155972;27;20114;-64
2024/03/22 14:27:58;;;;;;;54.42;39.50;;;;;;;;;;5133695;27;20120;-64
2024/03/22 14:30:25;;;;;;;49.78;37.55;;;;;;;;;;5155817;27;20019;-64
2024/03/22 14:32:52;;;;;;;54.63;37.67;;;;;;;;;;5155735;27;20026;-66
2024/03/22 14:35:18;;;;;;;44.42;33.28;;;;;;;;;;5148988;27;20102;-65